Windom, MN

8:46 PM CST on December 24, 2014 (GMT -0600)
Windom Municipal | Change Station
CLOSE
Current Station
Airport
Location: Windom,
Elevation: 1411 ft
Nearby Weather Stations

Elev 1411 ft 43.91 °N, 95.11 °W | Updated 12 minutes ago

Overcast
Overcast
27 °F
Feels Like 15 °F
N
14
Wind Variable Wind from SSW
Gusts 22 mph

Today
High -- | Low -- °F
--% Chance of Precip.
Yesterday
High -- | Low -- °F
Precip. -- in
7:53 AM 4:47 PM
Waxing Crescent, 12% visible
Pressure 29.62 in
Visibility 10.0 miles
Clouds Overcast 300 ft
Windchill 15 °F
Dew Point 27 °F
Humidity 100%
Rainfall 0.02 in
Snow Depth Not available.
UV 0 out of 12
Pollen .10 out of 12
Air Quality Not available.
Flu Activity Not available.
METAR KMWM 250234Z AUTO 21012G19KT 10SM OVC003 M03/M03 A2962 RMK AO2

More Conditions Fewer Conditions

Pressure 29.62 in
Visibility 10.0 miles
Clouds Overcast 300 ft
Windchill 15 °F
Dew Point 27 °F
Humidity 100%
Rainfall 0.02 in
Snow Depth Not available.
UV 0 out of 12
Pollen .10 out of 12
Air Quality Not available.
Flu Activity Not available.
METAR KMWM 250234Z AUTO 21012G19KT 10SM OVC003 M03/M03 A2962 RMK AO2

More Conditions Fewer Conditions

10-Day Weather Forecast

Almanac

Astronomy

Dec. 24, 2014 Rise Set
Actual Time
Civil Twilight
Nautical Twilight
Astronomical Twilight
Moon
Length of Visible Light
Length of Day
Tomorrow will be .
, % of the Moon is Illuminated

Today's Extremes

State Highs State Lows

Community

WunderPhotos

Upload Photos

1,780,215 photos uploaded!

WunderBlogs® & News

Nearby

Air Quality

  Air Quality AQ Index Pollutant
Not available.

Snow Depth

Station Depth Elevation

Earthquake Activity

City Distance Mag. Time & Date
Minimum magnitude displayed is 2.5.

Coastal Water Temperatures

Place Temperature

Nearby Weather Stations